Time;durP1;ratioP1;P1;durP2;ratioP2;P2;SDS_P1;SDS_P2;PMS_P1;PMS_P2;Temp;Humidity;BMP_temperature;BMP_pressure;BME280_temperature;BME280_humidity;BME280_pressure;Samples;Min_cycle;Max_cycle;Signal;HPM_P1;HPM_P2
2021/08/07 00:00:43;;;;;;;0.32;0.30;;;17.70;80.00;;;;;;4861894;29;20049;-82
2021/08/07 00:03:09;;;;;;;0.57;0.40;;;17.60;80.10;;;;;;4876983;29;20041;-81
2021/08/07 00:05:34;;;;;;;0.43;0.20;;;17.60;80.20;;;;;;4877654;29;20411;-81
2021/08/07 00:08:00;;;;;;;0.50;0.50;;;17.50;80.20;;;;;;4878979;29;20131;-81
2021/08/07 00:10:26;;;;;;;0.50;0.50;;;17.50;80.30;;;;;;4876577;29;20057;-81
2021/08/07 00:12:51;;;;;;;0.38;0.30;;;17.50;80.40;;;;;;4877793;29;20509;-81
2021/08/07 00:15:17;;;;;;;0.40;0.30;;;17.50;80.50;;;;;;4862262;29;20064;-82
2021/08/07 00:17:43;;;;;;;0.98;0.40;;;17.50;80.50;;;;;;4845671;29;20057;-81
2021/08/07 00:20:09;;;;;;;1.80;0.40;;;17.50;80.50;;;;;;4846691;29;20097;-81
2021/08/07 00:22:36;;;;;;;0.57;0.40;;;17.50;80.60;;;;;;4862199;29;20049;-81
2021/08/07 00:25:03;;;;;;;0.70;0.52;;;17.40;80.60;;;;;;4861476;29;20064;-81
2021/08/07 00:27:28;;;;;;;0.52;0.40;;;17.40;80.60;;;;;;4877463;29;20096;-81
2021/08/07 00:29:54;;;;;;;0.65;0.40;;;17.40;80.60;;;;;;4877750;29;20045;-81
2021/08/07 00:32:20;;;;;;;0.50;0.28;;;17.40;80.60;;;;;;4861639;29;20453;-82
2021/08/07 00:34:46;;;;;;;0.80;0.50;;;17.40;80.70;;;;;;4861396;29;20496;-81
2021/08/07 00:37:12;;;;;;;1.05;0.50;;;17.40;80.70;;;;;;4859923;29;20037;-81
2021/08/07 00:39:38;;;;;;;1.15;0.50;;;17.40;80.70;;;;;;4877759;29;20048;-82
2021/08/07 00:42:04;;;;;;;1.08;0.38;;;17.40;80.70;;;;;;4878601;29;20055;-82
2021/08/07 00:44:30;;;;;;;0.35;0.35;;;17.30;80.70;;;;;;4846463;29;20128;-81
2021/08/07 00:46:55;;;;;;;0.52;0.50;;;17.30;80.70;;;;;;4860096;29;20161;-82
2021/08/07 00:49:21;;;;;;;0.40;0.40;;;17.30;80.80;;;;;;4878284;29;20053;-82
2021/08/07 00:51:49;;;;;;;0.47;0.40;;;17.30;80.90;;;;;;4878090;29;20049;-82
2021/08/07 00:54:14;;;;;;;1.00;0.40;;;17.30;80.90;;;;;;4860529;29;20094;-82
2021/08/07 00:56:40;;;;;;;0.40;0.40;;;17.20;80.90;;;;;;4861725;29;20049;-82
2021/08/07 00:59:06;;;;;;;0.20;0.20;;;17.20;80.90;;;;;;4878611;29;20052;-83
2021/08/07 01:01:46;;;;;;;0.52;0.43;;;17.20;81.00;;;;;;4862118;29;20078;-83
2021/08/07 01:04:19;;;;;;;0.30;0.30;;;17.20;81.00;;;;;;4879766;29;20052;-82
2021/08/07 01:06:54;;;;;;;1.45;0.40;;;17.20;81.00;;;;;;4865791;29;20037;-81
2021/08/07 01:09:52;;;;;;;0.57;0.52;;;17.20;81.10;;;;;;4874738;29;20049;-82
2021/08/07 01:12:27;;;;;;;0.30;0.30;;;17.20;81.20;;;;;;4861333;29;20494;-83
2021/08/07 01:14:56;;;;;;;0.65;0.50;;;17.20;81.30;;;;;;4877071;29;20044;-82
2021/08/07 01:17:26;;;;;;;0.30;0.30;;;17.20;81.30;;;;;;4861850;29;20412;-83
2021/08/07 01:20:00;;;;;;;0.30;0.30;;;17.10;81.30;;;;;;4860918;29;20045;-82
2021/08/07 01:22:38;;;;;;;0.40;0.40;;;17.10;81.30;;;;;;4876432;29;20048;-82
2021/08/07 01:25:07;;;;;;;0.50;0.50;;;17.20;81.40;;;;;;4859058;29;20041;-82
2021/08/07 01:27:37;;;;;;;0.50;0.50;;;17.20;81.40;;;;;;4876883;29;20048;-82
2021/08/07 01:30:05;;;;;;;0.50;0.50;;;17.20;81.50;;;;;;4860341;29;20045;-82
2021/08/07 01:32:33;;;;;;;0.22;0.22;;;17.20;81.60;;;;;;4861155;29;20488;-83
2021/08/07 01:35:01;;;;;;;0.52;0.38;;;17.10;81.50;;;;;;4862023;29;20361;-82
2021/08/07 01:37:27;;;;;;;1.27;0.47;;;17.20;81.70;;;;;;4876558;29;20077;-82
2021/08/07 01:39:54;;;;;;;0.40;0.40;;;17.20;81.70;;;;;;4860427;29;20607;-82
2021/08/07 01:42:22;;;;;;;0.60;0.40;;;17.10;81.80;;;;;;4861090;29;20048;-83
2021/08/07 01:44:47;;;;;;;0.47;0.40;;;17.10;81.80;;;;;;4861111;29;20491;-82
2021/08/07 01:47:24;;;;;;;0.40;0.40;;;17.20;81.90;;;;;;4876527;29;20048;-82
2021/08/07 01:50:03;;;;;;;1.20;0.30;;;17.10;82.00;;;;;;4859684;29;20034;-83
2021/08/07 01:52:33;;;;;;;0.50;0.50;;;17.10;82.10;;;;;;4860670;29;20076;-82
2021/08/07 01:55:03;;;;;;;0.90;0.50;;;17.10;82.10;;;;;;4845311;29;20149;-82
2021/08/07 01:57:32;;;;;;;0.95;0.50;;;17.10;82.10;;;;;;4860783;29;20135;-81
2021/08/07 01:59:58;;;;;;;0.40;0.40;;;17.10;82.20;;;;;;4845429;29;20092;-82
2021/08/07 02:02:26;;;;;;;0.40;0.40;;;17.10;82.30;;;;;;4861494;29;20045;-82
2021/08/07 02:04:51;;;;;;;0.85;0.47;;;17.10;82.30;;;;;;4879292;29;20048;-82
2021/08/07 02:07:18;;;;;;;0.95;0.50;;;17.10;82.40;;;;;;4846955;29;20400;-82
2021/08/07 02:09:44;;;;;;;1.52;0.70;;;17.10;82.50;;;;;;4864277;29;20056;-82
2021/08/07 02:12:12;;;;;;;0.73;0.50;;;17.00;82.50;;;;;;4879949;29;20045;-82
2021/08/07 02:14:40;;;;;;;0.47;0.47;;;17.00;82.60;;;;;;4864346;29;20041;-82
2021/08/07 02:17:06;;;;;;;0.50;0.50;;;17.00;82.70;;;;;;4864656;29;20136;-82
2021/08/07 02:19:36;;;;;;;0.38;0.38;;;16.90;82.70;;;;;;4864417;29;20128;-82
2021/08/07 02:22:02;;;;;;;0.85;0.60;;;16.90;82.80;;;;;;4881168;29;20119;-83
2021/08/07 02:24:28;;;;;;;0.55;0.50;;;16.80;82.90;;;;;;4863850;29;20033;-82
2021/08/07 02:26:55;;;;;;;0.50;0.50;;;16.80;82.90;;;;;;4879353;29;20049;-82
2021/08/07 02:29:22;;;;;;;0.60;0.60;;;16.80;83.00;;;;;;4848426;29;20047;-82
2021/08/07 02:31:49;;;;;;;1.13;0.60;;;16.90;83.20;;;;;;4879738;29;20547;-82
2021/08/07 02:34:16;;;;;;;0.80;0.43;;;16.80;83.20;;;;;;4863733;29;20506;-82
2021/08/07 02:36:43;;;;;;;0.63;0.40;;;16.70;83.20;;;;;;4863768;29;20072;-82
2021/08/07 02:39:08;;;;;;;0.60;0.47;;;16.80;83.30;;;;;;4880771;29;20047;-82
2021/08/07 02:41:35;;;;;;;0.82;0.60;;;16.70;83.30;;;;;;4880385;29;20037;-82
2021/08/07 02:44:03;;;;;;;0.95;0.47;;;16.80;83.40;;;;;;4863016;29;20044;-82
2021/08/07 02:46:30;;;;;;;1.15;0.57;;;16.70;83.40;;;;;;4880179;29;20096;-83
2021/08/07 02:48:57;;;;;;;0.60;0.43;;;16.60;83.40;;;;;;4879518;29;20045;-82
2021/08/07 02:51:23;;;;;;;1.00;0.60;;;16.60;83.40;;;;;;4876320;29;20133;-82
2021/08/07 02:53:50;;;;;;;1.33;0.60;;;16.60;83.50;;;;;;4863544;29;20045;-82
2021/08/07 02:56:16;;;;;;;0.55;0.55;;;16.60;83.60;;;;;;4863201;29;20160;-82
2021/08/07 02:58:42;;;;;;;1.25;0.60;;;16.50;83.50;;;;;;4862375;29;20106;-82
2021/08/07 03:01:09;;;;;;;0.60;0.60;;;16.60;83.60;;;;;;4878972;29;20049;-82
2021/08/07 03:03:34;;;;;;;0.80;0.50;;;16.70;83.80;;;;;;4863319;29;20040;-83
2021/08/07 03:06:00;;;;;;;0.45;0.45;;;16.50;83.70;;;;;;4863368;29;20389;-82
2021/08/07 03:08:26;;;;;;;0.50;0.50;;;16.50;83.80;;;;;;4880589;29;20044;-82
2021/08/07 03:10:52;;;;;;;0.50;0.50;;;16.60;83.90;;;;;;4847657;29;20373;-82
2021/08/07 03:13:18;;;;;;;0.40;0.40;;;16.50;83.80;;;;;;4862872;29;20045;-82
2021/08/07 03:15:44;;;;;;;0.60;0.50;;;16.50;83.80;;;;;;4860890;29;20475;-82
2021/08/07 03:18:09;;;;;;;1.15;0.52;;;16.50;83.90;;;;;;4842376;29;20046;-81
2021/08/07 03:20:35;;;;;;;0.93;0.50;;;16.50;84.00;;;;;;4877951;29;20040;-82
2021/08/07 03:23:04;;;;;;;1.30;0.57;;;16.40;83.90;;;;;;4861882;29;20461;-82
2021/08/07 03:25:31;;;;;;;0.40;0.40;;;16.40;84.00;;;;;;4863633;29;20137;-82
2021/08/07 03:27:57;;;;;;;0.77;0.50;;;16.40;84.00;;;;;;4891992;29;20071;-82
2021/08/07 03:30:23;;;;;;;1.10;0.57;;;16.40;84.00;;;;;;4879377;29;20041;-82
2021/08/07 03:32:49;;;;;;;0.73;0.55;;;16.40;84.10;;;;;;4861516;29;20068;-82
2021/08/07 03:35:15;;;;;;;1.88;0.65;;;16.40;84.10;;;;;;4881713;29;20041;-82
2021/08/07 03:37:41;;;;;;;0.80;0.50;;;16.30;84.10;;;;;;4881751;29;20380;-82
2021/08/07 03:40:08;;;;;;;0.50;0.50;;;16.30;84.10;;;;;;4898668;29;20059;-82
2021/08/07 03:42:34;;;;;;;1.40;0.40;;;16.30;84.20;;;;;;4880887;29;20087;-82
2021/08/07 03:44:59;;;;;;;1.10;0.50;;;16.30;84.20;;;;;;4866083;29;20072;-81
2021/08/07 03:47:25;;;;;;;0.93;0.47;;;16.30;84.20;;;;;;4897958;29;20044;-82
2021/08/07 03:49:51;;;;;;;0.30;0.30;;;16.30;84.20;;;;;;4864905;29;20105;-82
2021/08/07 03:52:16;;;;;;;0.52;0.40;;;16.30;84.20;;;;;;4882607;29;20472;-81
2021/08/07 03:54:42;;;;;;;0.40;0.40;;;16.30;84.20;;;;;;4864843;29;20500;-82
2021/08/07 03:57:08;;;;;;;0.52;0.47;;;16.30;84.20;;;;;;4882095;29;20510;-82
2021/08/07 03:59:33;;;;;;;0.40;0.40;;;16.30;84.20;;;;;;4881447;29;20546;-83
2021/08/07 04:01:59;;;;;;;0.40;0.40;;;16.30;84.20;;;;;;4881499;29;20048;-82
2021/08/07 04:04:25;;;;;;;0.43;0.40;;;16.30;84.20;;;;;;4881023;29;20100;-82
2021/08/07 04:06:51;;;;;;;0.50;0.50;;;16.30;84.20;;;;;;4880970;29;20096;-82
2021/08/07 04:09:17;;;;;;;0.47;0.47;;;16.30;84.20;;;;;;4864063;29;20060;-82
2021/08/07 04:11:43;;;;;;;0.35;0.35;;;16.40;84.20;;;;;;4850283;29;20400;-82
2021/08/07 04:14:08;;;;;;;0.50;0.50;;;16.30;84.10;;;;;;4865486;29;20169;-82
2021/08/07 04:16:35;;;;;;;0.73;0.52;;;16.40;84.20;;;;;;4865799;29;20085;-82
2021/08/07 04:19:00;;;;;;;0.57;0.40;;;16.40;84.20;;;;;;4863917;29;20131;-82
2021/08/07 04:21:26;;;;;;;0.95;0.60;;;16.40;84.10;;;;;;4875766;29;20124;-83
2021/08/07 04:23:52;;;;;;;2.20;0.57;;;16.40;84.10;;;;;;4876828;29;20467;-82
2021/08/07 04:26:18;;;;;;;0.60;0.50;;;16.40;84.20;;;;;;4876266;29;20061;-82
2021/08/07 04:28:44;;;;;;;0.88;0.50;;;16.40;84.20;;;;;;4862128;29;20488;-82
2021/08/07 04:31:10;;;;;;;0.40;0.40;;;16.40;84.20;;;;;;4876739;29;20044;-82
2021/08/07 04:33:35;;;;;;;0.40;0.40;;;16.40;84.20;;;;;;4876445;29;20057;-82
2021/08/07 04:36:03;;;;;;;0.73;0.47;;;16.40;84.20;;;;;;4846383;29;20052;-82
2021/08/07 04:38:29;;;;;;;0.47;0.47;;;16.40;84.20;;;;;;4880051;29;20068;-82
2021/08/07 04:40:55;;;;;;;0.43;0.40;;;16.40;84.30;;;;;;4880061;29;20049;-83
2021/08/07 04:43:21;;;;;;;0.30;0.30;;;16.40;84.30;;;;;;4865371;29;20071;-82
2021/08/07 04:45:47;;;;;;;0.30;0.30;;;16.40;84.30;;;;;;4880609;29;20079;-82
2021/08/07 04:48:12;;;;;;;0.35;0.30;;;16.40;84.30;;;;;;4898008;29;20396;-82
2021/08/07 04:50:39;;;;;;;0.30;0.30;;;16.50;84.40;;;;;;4865609;29;20056;-82
2021/08/07 04:53:06;;;;;;;0.60;0.50;;;16.50;84.40;;;;;;4849739;29;20411;-82
2021/08/07 04:55:34;;;;;;;0.50;0.50;;;16.50;84.40;;;;;;4897104;29;20052;-82
2021/08/07 04:58:00;;;;;;;0.73;0.50;;;16.50;84.40;;;;;;4896966;29;20048;-82
2021/08/07 05:00:26;;;;;;;0.22;0.22;;;16.50;84.40;;;;;;4848517;29;20045;-82
2021/08/07 05:02:52;;;;;;;0.40;0.40;;;16.50;84.30;;;;;;4880434;29;20380;-82
2021/08/07 05:05:18;;;;;;;1.08;0.55;;;16.50;84.40;;;;;;4897262;29;20048;-82
2021/08/07 05:07:48;;;;;;;0.40;0.40;;;16.60;84.50;;;;;;4897039;29;20124;-82
2021/08/07 05:10:14;;;;;;;0.35;0.35;;;16.60;84.40;;;;;;4880125;29;20073;-82
2021/08/07 05:12:41;;;;;;;0.47;0.40;;;16.60;84.30;;;;;;4864726;29;20045;-82
2021/08/07 05:15:07;;;;;;;0.40;0.40;;;16.60;84.20;;;;;;4864410;29;20044;-82
2021/08/07 05:17:34;;;;;;;0.65;0.40;;;16.60;84.10;;;;;;4879960;29;20045;-82
2021/08/07 05:19:59;;;;;;;0.47;0.43;;;16.70;84.10;;;;;;4864429;29;20072;-82
2021/08/07 05:22:25;;;;;;;0.40;0.40;;;16.70;84.10;;;;;;4849202;29;20161;-82
2021/08/07 05:24:52;;;;;;;0.63;0.40;;;16.80;84.10;;;;;;4864449;29;20044;-83
2021/08/07 05:27:18;;;;;;;0.52;0.28;;;16.70;84.00;;;;;;4896922;29;20522;-83
2021/08/07 05:29:44;;;;;;;0.30;0.30;;;16.70;83.90;;;;;;4879871;29;20499;-82
2021/08/07 05:32:10;;;;;;;0.57;0.32;;;16.80;83.90;;;;;;4879211;29;20049;-82
2021/08/07 05:34:36;;;;;;;1.55;0.43;;;16.80;83.80;;;;;;4879754;29;20037;-82
2021/08/07 05:37:02;;;;;;;1.02;0.40;;;16.80;83.80;;;;;;4880892;29;20503;-82
2021/08/07 05:39:28;;;;;;;1.08;0.50;;;16.90;83.80;;;;;;4902831;29;20599;-82
2021/08/07 05:41:53;;;;;;;0.43;0.38;;;16.90;83.80;;;;;;4885090;29;20527;-82
2021/08/07 05:44:19;;;;;;;0.55;0.40;;;16.90;83.70;;;;;;4867498;29;20063;-82
2021/08/07 05:46:45;;;;;;;0.30;0.30;;;16.90;83.60;;;;;;4867381;29;20083;-82
2021/08/07 05:49:11;;;;;;;0.73;0.30;;;16.90;83.60;;;;;;4883131;29;20075;-82
2021/08/07 05:51:37;;;;;;;0.40;0.30;;;16.90;83.60;;;;;;4900037;29;20048;-82
2021/08/07 05:54:03;;;;;;;0.40;0.35;;;16.90;83.50;;;;;;4867565;29;20455;-82
2021/08/07 05:56:29;;;;;;;0.63;0.30;;;17.00;83.50;;;;;;4881914;29;20037;-83
2021/08/07 05:58:54;;;;;;;0.45;0.45;;;17.00;83.40;;;;;;4899811;29;20502;-82
2021/08/07 06:01:20;;;;;;;0.22;0.22;;;17.00;83.40;;;;;;4899669;29;20063;-83
2021/08/07 06:03:46;;;;;;;0.50;0.40;;;17.20;83.40;;;;;;4882935;29;20059;-82
2021/08/07 06:06:11;;;;;;;0.55;0.52;;;17.20;83.40;;;;;;4865258;29;20048;-82
2021/08/07 06:08:37;;;;;;;0.63;0.30;;;17.20;83.20;;;;;;4882765;29;20036;-82
2021/08/07 06:11:03;;;;;;;0.20;0.20;;;17.10;83.20;;;;;;4851732;29;20040;-83
2021/08/07 06:13:29;;;;;;;0.85;0.30;;;17.20;83.30;;;;;;4867896;29;20440;-82
2021/08/07 06:15:55;;;;;;;0.40;0.30;;;17.30;83.20;;;;;;4867067;29;20036;-82
2021/08/07 06:18:20;;;;;;;0.40;0.30;;;17.30;83.00;;;;;;4851749;29;20068;-82
2021/08/07 06:20:46;;;;;;;0.63;0.40;;;17.50;82.80;;;;;;4851965;29;20101;-83
2021/08/07 06:23:12;;;;;;;0.20;0.20;;;17.40;82.70;;;;;;4882085;29;20052;-82
2021/08/07 06:25:38;;;;;;;0.40;0.30;;;17.50;82.70;;;;;;4881421;29;20052;-82
2021/08/07 06:28:05;;;;;;;0.50;0.30;;;17.50;82.70;;;;;;4881367;29;20041;-82
2021/08/07 06:30:31;;;;;;;0.30;0.30;;;17.50;82.70;;;;;;4899192;29;20076;-83
2021/08/07 06:32:57;;;;;;;0.30;0.30;;;17.60;82.60;;;;;;4881874;29;20053;-83
2021/08/07 06:35:23;;;;;;;0.82;0.40;;;17.60;82.50;;;;;;4866530;29;20036;-82
2021/08/07 06:37:49;;;;;;;1.85;0.35;;;17.70;82.20;;;;;;4882373;29;20167;-82
2021/08/07 06:40:16;;;;;;;1.30;0.45;;;17.70;82.00;;;;;;4899172;29;20051;-83
2021/08/07 06:42:42;;;;;;;0.52;0.22;;;17.80;82.60;;;;;;4884248;29;20051;-82
2021/08/07 06:45:09;;;;;;;0.52;0.38;;;17.90;81.90;;;;;;4873395;29;20044;-82
2021/08/07 06:47:35;;;;;;;0.65;0.50;;;17.90;81.60;;;;;;4887217;29;20064;-83
2021/08/07 06:50:02;;;;;;;0.40;0.38;;;18.00;81.50;;;;;;4899295;29;20491;-83
2021/08/07 06:52:28;;;;;;;0.30;0.30;;;18.10;81.60;;;;;;4869867;29;20063;-80
2021/08/07 06:54:53;;;;;;;0.35;0.25;;;18.10;81.50;;;;;;4854384;29;20033;-79
2021/08/07 06:57:21;;;;;;;0.50;0.30;;;18.20;81.40;;;;;;4853338;29;20044;-79
2021/08/07 06:59:47;;;;;;;0.40;0.30;;;18.20;81.10;;;;;;4861447;29;20430;-79
2021/08/07 07:02:13;;;;;;;1.27;0.50;;;18.30;80.90;;;;;;4880974;29;20079;-79
2021/08/07 07:04:38;;;;;;;0.77;0.52;;;18.40;80.70;;;;;;4881084;29;20076;-79
2021/08/07 07:07:05;;;;;;;1.92;0.30;;;18.50;80.40;;;;;;4895582;29;20092;-79
2021/08/07 07:09:31;;;;;;;0.43;0.40;;;18.60;80.20;;;;;;4896944;29;20055;-79
2021/08/07 07:11:57;;;;;;;0.35;0.32;;;18.60;80.00;;;;;;4897390;29;20059;-79
2021/08/07 07:14:23;;;;;;;0.47;0.30;;;18.70;79.70;;;;;;4882523;29;20049;-78
2021/08/07 07:16:49;;;;;;;0.93;0.30;;;18.80;79.50;;;;;;4866910;29;20045;-79
2021/08/07 07:19:15;;;;;;;0.73;0.30;;;18.90;79.30;;;;;;4894646;29;20051;-79
2021/08/07 07:21:42;;;;;;;0.57;0.40;;;18.90;79.30;;;;;;4880171;29;20399;-79
2021/08/07 07:24:08;;;;;;;1.17;0.30;;;18.90;79.30;;;;;;4894684;29;20063;-79
2021/08/07 07:26:34;;;;;;;1.15;0.30;;;19.00;79.10;;;;;;4898601;29;20388;-79
2021/08/07 07:29:00;;;;;;;2.05;0.30;;;19.00;79.10;;;;;;4881084;29;20060;-79
2021/08/07 07:31:26;;;;;;;0.25;0.25;;;19.10;78.90;;;;;;4881461;29;20047;-79
2021/08/07 07:33:52;;;;;;;1.00;0.40;;;19.30;78.60;;;;;;4898435;29;20139;-79
2021/08/07 07:36:18;;;;;;;0.75;0.30;;;19.40;78.20;;;;;;4897865;29;20177;-79
2021/08/07 07:38:44;;;;;;;0.63;0.30;;;19.40;78.00;;;;;;4898396;29;20860;-79
2021/08/07 07:41:11;;;;;;;0.75;0.40;;;19.50;77.90;;;;;;4879523;29;20045;-79
2021/08/07 07:43:37;;;;;;;1.67;0.30;;;19.60;77.90;;;;;;4880852;29;20048;-79
2021/08/07 07:46:04;;;;;;;0.35;0.30;;;19.60;78.20;;;;;;4880896;29;20041;-80
2021/08/07 07:48:30;;;;;;;0.70;0.35;;;19.70;77.60;;;;;;4881130;29;20103;-79
2021/08/07 07:50:56;;;;;;;0.50;0.30;;;19.80;77.20;;;;;;4880353;29;20128;-78
2021/08/07 07:53:21;;;;;;;0.40;0.40;;;19.90;77.00;;;;;;4850387;29;20044;-79
2021/08/07 07:55:47;;;;;;;1.30;0.50;;;20.00;76.70;;;;;;4865303;29;20447;-79
2021/08/07 07:58:13;;;;;;;0.63;0.40;;;20.10;76.30;;;;;;4897902;29;20043;-78
2021/08/07 08:00:39;;;;;;;0.30;0.30;;;20.10;76.00;;;;;;4878677;29;20041;-79
2021/08/07 08:03:05;;;;;;;1.02;0.40;;;20.10;75.80;;;;;;4897747;29;20052;-80
2021/08/07 08:05:30;;;;;;;0.40;0.20;;;20.20;75.70;;;;;;4897981;29;20381;-79
2021/08/07 08:07:56;;;;;;;0.85;0.35;;;20.10;75.50;;;;;;4879527;29;20049;-79
2021/08/07 08:10:22;;;;;;;1.10;0.30;;;20.10;75.60;;;;;;4863240;29;20049;-79
2021/08/07 08:12:48;;;;;;;0.38;0.38;;;20.10;75.70;;;;;;4865663;29;20060;-79
2021/08/07 08:15:14;;;;;;;2.10;0.40;;;20.30;75.90;;;;;;4880982;29;20032;-79
2021/08/07 08:17:41;;;;;;;0.50;0.32;;;20.40;75.70;;;;;;4880838;29;20444;-79
2021/08/07 08:20:10;;;;;;;0.20;0.20;;;20.60;75.30;;;;;;4864912;29;20052;-79
2021/08/07 08:22:36;;;;;;;0.75;0.30;;;21.00;74.80;;;;;;4880932;29;20068;-80
2021/08/07 08:25:03;;;;;;;0.88;0.40;;;21.40;74.20;;;;;;4864704;29;20048;-80
2021/08/07 08:27:29;;;;;;;0.55;0.20;;;21.80;73.30;;;;;;4880560;29;20048;-80
2021/08/07 08:29:57;;;;;;;0.35;0.30;;;21.80;72.80;;;;;;4865750;29;20071;-80
2021/08/07 08:32:22;;;;;;;1.00;0.40;;;21.80;73.10;;;;;;4880062;29;20578;-82
2021/08/07 08:34:48;;;;;;;1.05;0.40;;;21.80;73.00;;;;;;4864482;29;20049;-82
2021/08/07 08:37:14;;;;;;;0.30;0.30;;;21.70;73.30;;;;;;4864968;29;20135;-79
2021/08/07 08:39:40;;;;;;;0.38;0.30;;;21.70;73.60;;;;;;4897254;29;20400;-79
2021/08/07 08:42:07;;;;;;;1.05;0.52;;;21.80;73.20;;;;;;4880273;29;20056;-79
2021/08/07 08:44:34;;;;;;;0.73;0.40;;;21.80;73.40;;;;;;4864590;29;20043;-79
2021/08/07 08:47:00;;;;;;;0.40;0.35;;;21.70;73.60;;;;;;4897289;29;20052;-79
2021/08/07 08:49:29;;;;;;;0.80;0.40;;;21.80;73.70;;;;;;4864335;29;20052;-80
2021/08/07 08:51:55;;;;;;;0.93;0.50;;;21.60;73.80;;;;;;4879763;29;20040;-80
2021/08/07 08:54:20;;;;;;;0.90;0.47;;;21.40;73.90;;;;;;4880083;29;20128;-80
2021/08/07 08:56:47;;;;;;;0.90;0.45;;;21.20;74.50;;;;;;4864513;29;20044;-80
2021/08/07 08:59:13;;;;;;;0.55;0.40;;;21.00;75.10;;;;;;4897093;29;20392;-80
2021/08/07 09:01:39;;;;;;;0.95;0.60;;;21.00;75.30;;;;;;4897006;29;20048;-80
2021/08/07 09:04:05;;;;;;;0.30;0.30;;;20.90;75.40;;;;;;4879576;29;20096;-79
2021/08/07 09:06:33;;;;;;;0.93;0.57;;;20.90;75.80;;;;;;4897211;29;20041;-81
2021/08/07 09:09:02;;;;;;;0.90;0.50;;;21.00;75.50;;;;;;4893061;29;20037;-80
2021/08/07 09:11:28;;;;;;;0.87;0.60;;;21.10;75.00;;;;;;4877906;29;20050;-80
2021/08/07 09:14:25;;;;;;;0.40;0.40;;;21.30;74.70;;;;;;4861188;29;20423;-79
2021/08/07 09:17:19;;;;;;;1.40;0.50;;;21.60;74.40;;;;;;4875186;29;20397;-80
2021/08/07 09:19:52;;;;;;;0.73;0.55;;;21.90;73.50;;;;;;4846494;29;20136;-79
2021/08/07 09:22:23;;;;;;;0.65;0.47;;;22.00;73.30;;;;;;4876716;29;20073;-79
2021/08/07 09:25:13;;;;;;;0.60;0.40;;;22.00;73.10;;;;;;4845233;29;20448;-79
2021/08/07 09:27:45;;;;;;;0.30;0.30;;;21.90;73.10;;;;;;4879008;29;20516;-80
2021/08/07 09:30:25;;;;;;;1.85;0.52;;;21.90;73.60;;;;;;4880119;29;20048;-79
2021/08/07 09:33:03;;;;;;;0.50;0.40;;;22.00;73.60;;;;;;4878998;29;20481;-80
2021/08/07 09:35:33;;;;;;;0.30;0.30;;;21.90;73.70;;;;;;4861282;29;20033;-81
2021/08/07 09:38:19;;;;;;;0.20;0.20;;;21.80;73.80;;;;;;4877894;29;20496;-82
2021/08/07 09:40:54;;;;;;;0.43;0.30;;;21.70;74.10;;;;;;4877191;29;20037;-81
2021/08/07 09:43:25;;;;;;;0.38;0.35;;;21.60;74.60;;;;;;4844211;29;20077;-81
2021/08/07 09:46:07;;;;;;;;;;;21.50;74.80;;;;;;4860258;29;20047;-83
2021/08/07 09:48:36;;;;;;;0.85;0.50;;;21.60;74.90;;;;;;4841815;29;19955;-82
2021/08/07 09:51:21;;;;;;;0.38;0.30;;;21.50;75.50;;;;;;4858372;29;20092;-81
2021/08/07 09:54:10;;;;;;;0.30;0.30;;;21.80;74.80;;;;;;4878148;29;20052;-81
2021/08/07 09:56:55;;;;;;;0.80;0.30;;;21.90;74.20;;;;;;4859828;29;20045;-81
2021/08/07 09:59:23;;;;;;;0.57;0.43;;;22.10;73.80;;;;;;4877705;29;20047;-81
2021/08/07 10:01:50;;;;;;;0.95;0.47;;;22.20;73.30;;;;;;4875988;29;20165;-81
2021/08/07 10:04:17;;;;;;;0.40;0.40;;;22.30;73.20;;;;;;4845460;29;20093;-81
2021/08/07 10:06:44;;;;;;;0.85;0.55;;;22.30;73.00;;;;;;4857935;29;20048;-81
2021/08/07 10:09:11;;;;;;;0.40;0.40;;;22.30;72.70;;;;;;4854945;29;20132;-81
2021/08/07 10:11:38;;;;;;;0.40;0.40;;;22.10;73.10;;;;;;4858903;29;20049;-81
2021/08/07 10:14:04;;;;;;;1.73;0.50;;;21.90;73.40;;;;;;4858380;29;20110;-81
2021/08/07 10:16:32;;;;;;;0.40;0.40;;;21.80;73.70;;;;;;4856913;29;20423;-82
2021/08/07 10:18:58;;;;;;;0.52;0.40;;;21.70;74.00;;;;;;4859073;29;20065;-83
2021/08/07 10:21:24;;;;;;;1.02;0.60;;;21.70;73.90;;;;;;4826308;29;20042;-81
2021/08/07 10:23:53;;;;;;;1.05;0.68;;;21.80;73.60;;;;;;4860351;29;20105;-81
2021/08/07 10:26:20;;;;;;;0.60;0.50;;;22.00;73.40;;;;;;4865842;29;20052;-80
2021/08/07 10:28:52;;;;;;;1.45;0.70;;;22.10;73.00;;;;;;4863725;29;20052;-80
2021/08/07 10:31:21;;;;;;;0.85;0.55;;;22.30;72.50;;;;;;4863790;29;20049;-80
2021/08/07 10:33:49;;;;;;;0.47;0.47;;;22.50;72.00;;;;;;4863537;29;20084;-81
2021/08/07 10:36:15;;;;;;;1.60;0.50;;;22.50;71.50;;;;;;4863804;29;20563;-82
2021/08/07 10:38:41;;;;;;;1.48;0.60;;;22.40;71.50;;;;;;4848449;29;20068;-80
2021/08/07 10:41:08;;;;;;;0.63;0.50;;;22.30;71.90;;;;;;4880752;29;20069;-80
2021/08/07 10:43:36;;;;;;;0.80;0.50;;;22.30;71.90;;;;;;4860970;29;20049;-80
2021/08/07 10:46:05;;;;;;;0.98;0.50;;;22.30;71.80;;;;;;4829211;29;20098;-81
2021/08/07 10:48:36;;;;;;;1.10;0.63;;;22.40;71.70;;;;;;4862127;29;20053;-80
2021/08/07 10:51:30;;;;;;;1.48;0.70;;;22.40;71.30;;;;;;4831964;29;20461;-80
2021/08/07 10:53:58;;;;;;;2.45;0.60;;;22.40;71.00;;;;;;4878482;29;20096;-80
2021/08/07 10:56:42;;;;;;;1.50;0.70;;;22.50;70.80;;;;;;4878666;29;20037;-80
2021/08/07 10:59:19;;;;;;;2.45;0.93;;;22.50;70.50;;;;;;4879990;29;20105;-80
2021/08/07 11:01:47;;;;;;;0.73;0.52;;;22.30;70.30;;;;;;4878831;29;20041;-80
2021/08/07 11:04:20;;;;;;;1.23;0.80;;;22.40;70.50;;;;;;4862075;29;20049;-80
2021/08/07 11:06:49;;;;;;;0.80;0.63;;;22.50;70.10;;;;;;4861420;29;20079;-81
2021/08/07 11:09:20;;;;;;;0.65;0.43;;;22.50;70.00;;;;;;4880120;29;20042;-80
2021/08/07 11:11:47;;;;;;;1.55;0.60;;;22.40;70.10;;;;;;4876947;29;20041;-81
2021/08/07 11:14:50;;;;;;;1.67;0.60;;;22.40;70.20;;;;;;4880031;29;20041;-80
2021/08/07 11:17:25;;;;;;;1.85;0.52;;;22.30;71.00;;;;;;4859290;29;20060;-81
2021/08/07 11:20:00;;;;;;;0.43;0.43;;;22.40;70.10;;;;;;4864137;29;20381;-80
2021/08/07 11:22:49;;;;;;;0.45;0.40;;;22.40;69.90;;;;;;4847655;29;20048;-79
2021/08/07 11:25:21;;;;;;;1.05;0.50;;;22.60;69.70;;;;;;4848742;29;20052;-79
2021/08/07 11:28:03;;;;;;;0.85;0.40;;;22.70;69.50;;;;;;4862754;29;20084;-80
2021/08/07 11:30:36;;;;;;;1.30;0.57;;;22.70;69.10;;;;;;4861153;29;20056;-81
2021/08/07 11:33:20;;;;;;;1.55;0.50;;;22.70;68.70;;;;;;4862908;29;20512;-85
2021/08/07 11:36:07;;;;;;;0.88;0.50;;;22.70;68.80;;;;;;4846289;29;20512;-84
2021/08/07 11:38:56;;;;;;;;;;;22.50;68.80;;;;;;4820445;29;20050;-83
2021/08/07 11:41:37;;;;;;;0.85;0.55;;;22.50;69.20;;;;;;4863802;29;19915;-83
2021/08/07 11:44:04;;;;;;;1.42;0.50;;;22.60;68.80;;;;;;4862355;29;20404;-85
2021/08/07 11:46:35;;;;;;;0.70;0.50;;;22.50;68.40;;;;;;4849723;29;20052;-83
2021/08/07 11:49:01;;;;;;;0.75;0.50;;;22.50;68.80;;;;;;4848734;29;20393;-83
2021/08/07 11:51:29;;;;;;;1.17;0.60;;;22.50;68.90;;;;;;4847921;29;20060;-83
2021/08/07 11:53:55;;;;;;;0.40;0.40;;;22.60;68.60;;;;;;4864759;29;20057;-83
2021/08/07 11:56:23;;;;;;;1.25;0.50;;;22.60;68.30;;;;;;4865211;29;20564;-84
2021/08/07 11:58:51;;;;;;;1.75;0.45;;;22.70;68.70;;;;;;4862914;29;20489;-83
2021/08/07 12:01:18;;;;;;;0.38;0.38;;;22.90;68.30;;;;;;4878748;29;20488;-85
2021/08/07 12:03:47;;;;;;;0.75;0.43;;;22.90;68.10;;;;;;4880675;29;20041;-81
2021/08/07 12:06:15;;;;;;;1.30;0.60;;;22.90;68.10;;;;;;4864320;29;20061;-83
2021/08/07 12:08:41;;;;;;;0.55;0.40;;;23.10;67.10;;;;;;4863612;29;20678;-83
2021/08/07 12:11:10;;;;;;;1.58;0.50;;;22.90;66.60;;;;;;4847327;29;20404;-82
2021/08/07 12:13:41;;;;;;;0.75;0.50;;;23.00;66.60;;;;;;4863178;29;20140;-82
2021/08/07 12:16:10;;;;;;;1.05;0.40;;;23.00;66.50;;;;;;4878887;29;20045;-84
2021/08/07 12:18:54;;;;;;;0.68;0.40;;;23.10;66.20;;;;;;4847407;29;20056;-82
2021/08/07 12:21:30;;;;;;;0.47;0.40;;;23.00;65.90;;;;;;4878969;29;20484;-83
2021/08/07 12:24:14;;;;;;;0.55;0.40;;;23.10;65.80;;;;;;4844078;29;20056;-83
2021/08/07 12:26:46;;;;;;;1.25;0.57;;;23.10;65.60;;;;;;4861101;29;20100;-82
2021/08/07 12:29:15;;;;;;;0.45;0.38;;;23.00;65.60;;;;;;4848804;29;20041;-85
2021/08/07 12:31:48;;;;;;;0.37;0.37;;;22.90;65.80;;;;;;4848239;29;20045;-85
2021/08/07 12:34:28;;;;;;;0.85;0.50;;;22.80;65.90;;;;;;4809359;29;20046;-82
2021/08/07 12:37:04;;;;;;;;;;;23.00;65.80;;;;;;4826467;29;20038;-86
2021/08/07 12:39:39;;;;;;;1.13;0.55;;;23.10;65.50;;;;;;4824425;29;20004;-80
2021/08/07 12:42:06;;;;;;;2.00;0.60;;;23.10;65.00;;;;;;4822728;29;20045;-83
2021/08/07 12:44:32;;;;;;;0.75;0.47;;;22.80;65.10;;;;;;4808508;29;20046;-84
2021/08/07 12:46:58;;;;;;;0.77;0.50;;;22.70;65.30;;;;;;4807505;29;20046;-85
2021/08/07 12:49:40;;;;;;;0.80;0.50;;;22.70;65.60;;;;;;4808275;29;20094;-88
2021/08/07 12:52:10;;;;;;;0.75;0.40;;;22.70;65.20;;;;;;4807514;29;20045;-84
2021/08/07 12:54:36;;;;;;;1.33;0.50;;;22.80;65.00;;;;;;4823581;29;20070;-84